Time;durP1;ratioP1;P1;durP2;ratioP2;P2;SDS_P1;SDS_P2;PMS_P1;PMS_P2;Temp;Humidity;BMP_temperature;BMP_pressure;BME280_temperature;BME280_humidity;BME280_pressure;Samples;Min_cycle;Max_cycle;Signal;HPM_P1;HPM_P2
2022/09/28 00:02:14;;;;;;;;;;;17.00;99.90;;;;;;4937310;29;19950;-73
2022/09/28 00:04:41;;;;;;;;;;;17.10;99.90;;;;;;4937703;29;20438;-74
2022/09/28 00:07:08;;;;;;;;;;;17.10;99.90;;;;;;4937513;29;19919;-73
2022/09/28 00:09:35;;;;;;;;;;;17.00;99.90;;;;;;4937783;29;19911;-70
2022/09/28 00:12:02;;;;;;;;;;;17.00;99.90;;;;;;4937099;29;19926;-73
2022/09/28 00:14:31;;;;;;;;;;;17.00;99.90;;;;;;4937133;29;19915;-73
2022/09/28 00:16:57;;;;;;;;;;;17.20;99.90;;;;;;4951564;29;20022;-73
2022/09/28 00:19:24;;;;;;;;;;;17.30;99.90;;;;;;4937120;29;19922;-74
2022/09/28 00:21:51;;;;;;;;;;;17.40;99.90;;;;;;4937117;29;20002;-75
2022/09/28 00:24:19;;;;;;;;;;;17.40;99.90;;;;;;4936841;29;20389;-71
2022/09/28 00:26:53;;;;;;;;;;;17.30;99.90;;;;;;4937089;29;19910;-73
2022/09/28 00:29:21;;;;;;;;;;;17.40;99.90;;;;;;4936057;29;20601;-68
2022/09/28 00:31:48;;;;;;;;;;;17.30;99.90;;;;;;4936640;29;20225;-69
2022/09/28 00:34:15;;;;;;;;;;;17.40;99.90;;;;;;4937826;29;19911;-69
2022/09/28 00:36:45;;;;;;;;;;;17.40;99.90;;;;;;4947717;29;19915;-68
2022/09/28 00:39:13;;;;;;;;;;;17.60;99.90;;;;;;4941712;29;20389;-72
2022/09/28 00:41:40;;;;;;;;;;;17.70;99.90;;;;;;4935528;29;19962;-71
2022/09/28 00:44:22;;;;;;;;;;;17.80;99.90;;;;;;4936480;29;20005;-76
2022/09/28 00:46:50;;;;;;;;;;;17.90;99.90;;;;;;4936783;29;20370;-74
2022/09/28 00:49:19;;;;;;;;;;;18.20;99.90;;;;;;4936598;29;19910;-75
2022/09/28 00:51:46;;;;;;;;;;;18.20;99.90;;;;;;4936771;29;20330;-72
2022/09/28 00:54:14;;;;;;;;;;;18.20;99.90;;;;;;4935637;29;19992;-68
2022/09/28 00:56:43;;;;;;;;;;;18.20;99.90;;;;;;4935212;29;19946;-72
2022/09/28 00:59:10;;;;;;;;;;;18.30;99.90;;;;;;4936428;29;19911;-71
2022/09/28 01:01:37;;;;;;;;;;;18.40;99.90;;;;;;4935779;29;19951;-72
2022/09/28 01:04:04;;;;;;;;;;;18.30;99.90;;;;;;4935894;29;19918;-74
2022/09/28 01:06:32;;;;;;;;;;;18.40;99.90;;;;;;4934873;29;19911;-70
2022/09/28 01:09:01;;;;;;;;;;;18.70;99.90;;;;;;4936639;29;19911;-72
2022/09/28 01:11:32;;;;;;;;;;;18.90;99.90;;;;;;4938504;29;19915;-73
2022/09/28 01:13:59;;;;;;;;;;;19.00;99.90;;;;;;4936599;29;19915;-72
2022/09/28 01:16:41;;;;;;;;;;;19.30;99.90;;;;;;4936289;29;19911;-68
2022/09/28 01:19:26;;;;;;;;;;;19.50;99.90;;;;;;4935836;29;19915;-72
2022/09/28 01:22:11;;;;;;;;;;;19.90;99.90;;;;;;4935881;29;19919;-75
2022/09/28 01:25:07;;;;;;;;;;;19.70;99.90;;;;;;4936012;29;20001;-70
2022/09/28 01:28:03;;;;;;;;;;;19.70;99.90;;;;;;4916917;29;19992;-72
2022/09/28 01:30:33;;;;;;;;;;;19.80;99.90;;;;;;4931088;29;19922;-70
2022/09/28 01:33:00;;;;;;;;;;;19.70;99.90;;;;;;4935566;29;20355;-72
2022/09/28 01:35:31;;;;;;;;;;;19.60;99.90;;;;;;4935733;29;19922;-71
2022/09/28 01:38:04;;;;;;;;;;;19.40;99.90;;;;;;4935708;29;19911;-69
2022/09/28 01:40:31;;;;;;;;;;;19.40;99.90;;;;;;4935765;29;19922;-74
2022/09/28 01:43:18;;;;;;;;;;;19.60;99.90;;;;;;4935190;29;19926;-75
2022/09/28 01:45:47;;;;;;;;;;;19.50;99.90;;;;;;4935562;29;19921;-75
2022/09/28 01:48:16;;;;;;;;;;;19.70;99.90;;;;;;4935782;29;20009;-72
2022/09/28 01:50:45;;;;;;;;;;;19.80;99.90;;;;;;4934712;29;20013;-74
2022/09/28 01:53:15;;;;;;;;;;;19.70;99.90;;;;;;4934936;29;19911;-72
2022/09/28 01:55:48;;;;;;;;;;;19.70;99.90;;;;;;4935989;29;19914;-74
2022/09/28 01:58:28;;;;;;;;;;;19.60;99.90;;;;;;4935109;29;19966;-74
2022/09/28 02:01:08;;;;;;;;;;;19.50;99.90;;;;;;4933760;29;19933;-74
2022/09/28 02:03:38;;;;;;;;;;;19.60;99.90;;;;;;4935098;29;19986;-71
2022/09/28 02:06:07;;;;;;;;;;;19.70;99.90;;;;;;4935460;29;19993;-73
2022/09/28 02:08:37;;;;;;;;;;;19.70;99.90;;;;;;4937124;29;19933;-71
2022/09/28 02:11:13;;;;;;;;;;;19.70;99.90;;;;;;4949119;29;19915;-68
2022/09/28 02:13:43;;;;;;;;;;;19.70;99.90;;;;;;4940670;29;20006;-73
2022/09/28 02:16:13;;;;;;;;;;;19.70;99.90;;;;;;4934212;29;19923;-72
2022/09/28 02:18:41;;;;;;;;;;;19.70;99.90;;;;;;4935340;29;20343;-69
2022/09/28 02:21:14;;;;;;;;;;;19.90;99.90;;;;;;4935102;29;20005;-72
2022/09/28 02:23:44;;;;;;;;;;;20.10;99.90;;;;;;4934614;29;19918;-73
2022/09/28 02:26:13;;;;;;;;;;;20.30;99.90;;;;;;4935074;29;19911;-74
2022/09/28 02:28:40;;;;;;;;;;;20.30;99.90;;;;;;4934456;29;19933;-71
2022/09/28 02:31:06;;;;;;;;;;;20.20;99.90;;;;;;4933992;29;19914;-74
2022/09/28 02:33:35;;;;;;;;;;;20.20;99.90;;;;;;4935057;29;20334;-72
2022/09/28 02:36:02;;;;;;;;;;;20.10;99.90;;;;;;4935421;29;19914;-72
2022/09/28 02:38:30;;;;;;;;;;;20.30;99.70;;;;;;4934747;29;19911;-70
2022/09/28 02:41:14;;;;;;;;;;;20.30;99.90;;;;;;4919522;29;19922;-73
2022/09/28 02:43:49;;;;;;;;;;;20.30;99.90;;;;;;4915653;29;19919;-69
2022/09/28 02:46:35;;;;;;;;;;;20.30;99.90;;;;;;4915969;29;19911;-71
2022/09/28 02:49:10;;;;;;;;;;;20.40;99.90;;;;;;4915816;29;20398;-73
2022/09/28 02:51:55;;;;;;;;;;;20.50;99.60;;;;;;4916043;29;19915;-71
2022/09/28 02:54:22;;;;;;;;;;;20.70;99.90;;;;;;4915784;29;19911;-71
2022/09/28 02:57:06;;;;;;;;;;;20.60;99.90;;;;;;4914374;29;19915;-70
2022/09/28 02:59:49;;;;;;;;;;;20.50;99.90;;;;;;4915872;29;19922;-68
2022/09/28 03:02:25;;;;;;;;;;;20.50;99.90;;;;;;4915467;29;19975;-72
2022/09/28 03:04:58;;;;;;;;;;;20.50;99.90;;;;;;4915925;29;19919;-68
2022/09/28 03:07:30;;;;;;;;;;;20.30;99.90;;;;;;4915632;29;19915;-72
2022/09/28 03:10:03;;;;;;;;;;;20.20;99.90;;;;;;4916576;29;20411;-74
2022/09/28 03:12:32;;;;;;;;;;;20.20;99.90;;;;;;4934199;29;19910;-71
2022/09/28 03:15:07;;;;;;;;;;;20.00;99.90;;;;;;4935995;29;19971;-75
2022/09/28 03:17:34;;;;;;;;;;;19.90;99.90;;;;;;4934643;29;19918;-70
2022/09/28 03:20:01;;;;;;;;;;;19.80;99.90;;;;;;4934810;29;20017;-68
2022/09/28 03:22:28;;;;;;;;;;;19.60;99.90;;;;;;4934703;29;19926;-69
2022/09/28 03:24:54;;;;;;;;;;;19.50;99.90;;;;;;4934227;29;19915;-68
2022/09/28 03:27:21;;;;;;;;;;;19.50;99.90;;;;;;4937549;29;20006;-72
2022/09/28 03:29:48;;;;;;;;;;;19.40;99.90;;;;;;4938179;29;20010;-70
2022/09/28 03:32:15;;;;;;;;;;;19.40;99.90;;;;;;4937500;29;19915;-69
2022/09/28 03:34:42;;;;;;;;;;;19.30;99.90;;;;;;4938423;29;19911;-70
2022/09/28 03:37:08;;;;;;;;;;;19.30;99.90;;;;;;4936821;29;19937;-70
2022/09/28 03:39:35;;;;;;;;;;;19.40;99.90;;;;;;4937623;29;20409;-69
2022/09/28 03:42:03;;;;;;;;;;;19.40;99.90;;;;;;4937549;29;19936;-71
2022/09/28 03:44:30;;;;;;;;;;;19.30;99.90;;;;;;4938513;29;19915;-69
2022/09/28 03:46:56;;;;;;;;;;;19.20;99.90;;;;;;4949743;29;19946;-71
2022/09/28 03:49:23;;;;;;;;;;;19.20;99.90;;;;;;4943626;29;20324;-72
2022/09/28 03:51:50;;;;;;;;;;;19.20;99.90;;;;;;4936187;29;20260;-73
2022/09/28 03:54:17;;;;;;;;;;;19.00;99.90;;;;;;4937737;29;20373;-74
2022/09/28 03:56:43;;;;;;;;;;;18.90;99.90;;;;;;4938598;29;19997;-71
2022/09/28 03:59:10;;;;;;;;;;;18.80;99.90;;;;;;4938113;29;20002;-71
2022/09/28 04:01:37;;;;;;;;;;;18.80;99.90;;;;;;4937344;29;19927;-67
2022/09/28 04:04:03;;;;;;;;;;;18.80;99.90;;;;;;4937527;29;19914;-72
2022/09/28 04:06:30;;;;;;;;;;;18.80;99.90;;;;;;4937530;29;19911;-69
2022/09/28 04:08:57;;;;;;;;;;;18.80;99.90;;;;;;4937577;29;19925;-68
2022/09/28 04:11:23;;;;;;;;;;;18.80;99.90;;;;;;4936965;29;19918;-69
2022/09/28 04:13:50;;;;;;;;;;;18.70;99.90;;;;;;4936947;29;19911;-69
2022/09/28 04:16:17;;;;;;;;;;;18.70;99.90;;;;;;4937607;29;19919;-69
2022/09/28 04:18:44;;;;;;;;;;;18.60;99.90;;;;;;4937317;29;19946;-68
2022/09/28 04:21:12;;;;;;;;;;;18.60;99.90;;;;;;4936341;29;19918;-68
2022/09/28 04:23:39;;;;;;;;;;;18.60;99.90;;;;;;4936829;29;19919;-69
2022/09/28 04:26:06;;;;;;;;;;;18.70;99.90;;;;;;4937045;29;19915;-74
2022/09/28 04:31:18;;;;;;;;;;;18.80;99.90;;;;;;4937408;29;19965;-67
2022/09/28 04:33:45;;;;;;;;;;;18.90;99.90;;;;;;4935563;29;19915;-68
2022/09/28 04:36:15;;;;;;;;;;;19.00;99.90;;;;;;4936109;29;19914;-71
2022/09/28 04:38:41;;;;;;;;;;;19.10;99.90;;;;;;4937075;29;19911;-74
2022/09/28 04:41:08;;;;;;;;;;;19.20;99.90;;;;;;4937516;29;19917;-68
2022/09/28 04:43:36;;;;;;;;;;;19.40;99.90;;;;;;4937065;29;19918;-72
2022/09/28 04:46:06;;;;;;;;;;;19.50;99.90;;;;;;4936085;29;19922;-71
2022/09/28 04:48:33;;;;;;;;;;;19.60;99.90;;;;;;4936210;29;20319;-72
2022/09/28 04:51:00;;;;;;;;;;;19.60;99.90;;;;;;4937170;29;19917;-73
2022/09/28 04:53:27;;;;;;;;;;;19.50;99.90;;;;;;4936535;29;19922;-68
2022/09/28 04:55:58;;;;;;;;;;;19.40;99.90;;;;;;4937030;29;19911;-70
2022/09/28 04:58:25;;;;;;;;;;;19.40;99.90;;;;;;4936548;29;20290;-73
2022/09/28 05:00:53;;;;;;;;;;;19.50;99.90;;;;;;4936680;29;20379;-68
2022/09/28 05:03:20;;;;;;;;;;;19.60;99.90;;;;;;4937476;29;20014;-68
2022/09/28 05:05:47;;;;;;;;;;;19.60;99.90;;;;;;4937858;29;19915;-68
2022/09/28 05:08:14;;;;;;;;;;;19.50;99.90;;;;;;4937723;29;19915;-67
2022/09/28 05:10:41;;;;;;;;;;;19.30;99.90;;;;;;4937204;29;21460;-70
2022/09/28 05:13:09;;;;;;;;;;;19.10;99.90;;;;;;4935774;29;19919;-70
2022/09/28 05:15:36;;;;;;;;;;;18.90;99.90;;;;;;4935967;29;19959;-73
2022/09/28 05:18:03;;;;;;;;;;;18.80;99.90;;;;;;4936956;29;19926;-71
2022/09/28 05:20:30;;;;;;;;;;;18.70;99.90;;;;;;4938257;29;19958;-73
2022/09/28 05:22:57;;;;;;;;;;;18.70;99.90;;;;;;4942533;29;19990;-71
2022/09/28 05:25:24;;;;;;;;;;;18.70;99.90;;;;;;4938539;29;20002;-74
2022/09/28 05:27:57;;;;;;;;;;;18.60;99.90;;;;;;4939510;29;19918;-71
2022/09/28 05:30:23;;;;;;;;;;;18.60;99.90;;;;;;4940940;29;19919;-72
2022/09/28 05:32:50;;;;;;;;;;;18.60;99.90;;;;;;4941105;29;19914;-69
2022/09/28 05:35:17;;;;;;;;;;;18.60;99.90;;;;;;4941793;29;19910;-68
2022/09/28 05:37:44;;;;;;;;;;;18.60;99.90;;;;;;4942808;29;19922;-70
2022/09/28 05:40:11;;;;;;;;;;;18.50;99.90;;;;;;4942004;29;19915;-69
2022/09/28 05:42:37;;;;;;;;;;;18.60;99.90;;;;;;4942376;29;19946;-67
2022/09/28 05:45:06;;;;;;;;;;;18.60;99.90;;;;;;4942885;29;19915;-68
2022/09/28 05:47:36;;;;;;;;;;;18.50;99.90;;;;;;4936991;29;19923;-67
2022/09/28 05:50:04;;;;;;;;;;;18.50;99.90;;;;;;4936866;29;19911;-68
2022/09/28 05:52:30;;;;;;;;;;;18.50;99.90;;;;;;4935916;29;19911;-68
2022/09/28 05:54:57;;;;;;;;;;;18.40;99.90;;;;;;4937704;29;20473;-68
2022/09/28 05:57:24;;;;;;;;;;;18.40;99.90;;;;;;4936174;29;20013;-69
2022/09/28 05:59:51;;;;;;;;;;;18.40;99.90;;;;;;4936401;29;20369;-70
2022/09/28 06:02:17;;;;;;;;;;;18.40;99.90;;;;;;4936372;29;19931;-72
2022/09/28 06:04:44;;;;;;;;;;;18.40;99.90;;;;;;4934738;29;19914;-70
2022/09/28 06:07:11;;;;;;;;;;;18.30;99.90;;;;;;4936895;29;19922;-68
2022/09/28 06:09:37;;;;;;;;;;;18.20;99.90;;;;;;4937169;29;19921;-69
2022/09/28 06:12:04;;;;;;;;;;;18.20;99.90;;;;;;4935802;29;19997;-68
2022/09/28 06:14:31;;;;;;;;;;;18.20;99.90;;;;;;4951631;29;19899;-69
2022/09/28 06:16:57;;;;;;;;;;;18.20;99.90;;;;;;4955620;29;19939;-69
2022/09/28 06:19:24;;;;;;;;;;;18.10;99.90;;;;;;4955639;29;19911;-68
2022/09/28 06:21:51;;;;;;;;;;;18.00;99.90;;;;;;4946984;29;19930;-70
2022/09/28 06:24:17;;;;;;;;;;;17.90;99.90;;;;;;4940799;29;20017;-68
2022/09/28 06:26:44;;;;;;;;;;;17.80;99.90;;;;;;4936198;29;19911;-69
2022/09/28 06:29:17;;;;;;;;;;;17.80;99.90;;;;;;4936270;29;19970;-71
2022/09/28 06:31:44;;;;;;;;;;;17.70;99.90;;;;;;4935783;29;20252;-69
2022/09/28 06:34:11;;;;;;;;;;;17.60;99.90;;;;;;4936201;29;19911;-66
2022/09/28 06:36:38;;;;;;;;;;;17.60;99.90;;;;;;4936294;29;20383;-68
2022/09/28 06:39:05;;;;;;;;;;;17.70;99.90;;;;;;4936415;29;19911;-68
2022/09/28 06:41:32;;;;;;;;;;;17.60;99.90;;;;;;4936461;29;19961;-67
2022/09/28 06:43:59;;;;;;;;;;;17.60;99.90;;;;;;4935622;29;20009;-67
2022/09/28 06:46:25;;;;;;;;;;;17.60;99.90;;;;;;4935557;29;19918;-67
2022/09/28 06:48:53;;;;;;;;;;;17.60;99.90;;;;;;4934579;29;20005;-69
2022/09/28 06:51:19;;;;;;;;;;;17.50;99.90;;;;;;4932555;29;19922;-69
2022/09/28 06:53:46;;;;;;;;;;;17.60;99.90;;;;;;4932402;29;19911;-68
2022/09/28 06:56:13;;;;;;;;;;;17.60;99.90;;;;;;4937164;29;20425;-67
2022/09/28 06:58:39;;;;;;;;;;;17.50;99.90;;;;;;4935398;29;19935;-69
2022/09/28 07:01:06;;;;;;;;;;;17.50;99.90;;;;;;4934893;29;19923;-68
2022/09/28 07:03:33;;;;;;;;;;;17.50;99.90;;;;;;4935821;29;19927;-74
2022/09/28 07:06:00;;;;;;;;;;;17.50;99.90;;;;;;4936558;29;19962;-73
2022/09/28 07:08:27;;;;;;;;;;;17.50;99.90;;;;;;4936654;29;19921;-72
2022/09/28 07:10:57;;;;;;;;;;;17.50;99.90;;;;;;4937290;29;19989;-73
2022/09/28 07:13:30;;;;;;;;;;;17.50;99.90;;;;;;4936784;29;19938;-74
2022/09/28 07:16:00;;;;;;;;;;;17.50;99.90;;;;;;4935469;29;19950;-73
2022/09/28 07:18:28;;;;;;;;;;;17.50;99.90;;;;;;4935880;29;20005;-75
2022/09/28 07:21:01;;;;;;;;;;;17.50;99.90;;;;;;4936596;29;19918;-73
2022/09/28 07:23:30;;;;;;;;;;;17.40;99.90;;;;;;4936308;29;19939;-71
2022/09/28 07:25:57;;;;;;;;;;;17.40;99.90;;;;;;4936367;29;20306;-71
2022/09/28 07:28:24;;;;;;;;;;;17.40;99.90;;;;;;4936790;29;19921;-70
2022/09/28 07:30:54;;;;;;;;;;;17.40;99.90;;;;;;4930048;29;19919;-72
2022/09/28 07:33:21;;;;;;;;;;;17.40;99.90;;;;;;4935470;29;19922;-75
2022/09/28 07:35:51;;;;;;;;;;;17.40;99.90;;;;;;4936084;29;20311;-70
2022/09/28 07:38:18;;;;;;;;;;;17.30;99.90;;;;;;4936152;29;20421;-73
2022/09/28 07:43:29;;;;;;;;;;;17.30;99.90;;;;;;4935232;29;20304;-70
2022/09/28 07:45:56;;;;;;;;;;;17.30;99.90;;;;;;4917668;29;20282;-71
2022/09/28 07:48:23;;;;;;;;;;;17.30;99.90;;;;;;4916756;29;20378;-73
2022/09/28 07:50:50;;;;;;;;;;;17.30;99.90;;;;;;4917018;29;19961;-72
2022/09/28 07:53:21;;;;;;;;;;;17.30;99.90;;;;;;4917270;29;19915;-74
2022/09/28 07:56:06;;;;;;;;;;;17.30;99.90;;;;;;4916993;29;19962;-70
2022/09/28 07:58:33;;;;;;;;;;;17.30;99.90;;;;;;4917617;29;20002;-73
2022/09/28 08:01:02;;;;;;;;;;;17.30;99.90;;;;;;4934702;29;19955;-72
2022/09/28 08:03:29;;;;;;;;;;;17.30;99.90;;;;;;4935365;29;19919;-76
2022/09/28 08:06:00;;;;;;;;;;;17.30;99.90;;;;;;4935739;29;19923;-74
2022/09/28 08:08:28;;;;;;;;;;;17.30;99.90;;;;;;4935868;29;20378;-72
2022/09/28 08:10:56;;;;;;;;;;;17.20;99.90;;;;;;4935013;29;20025;-69
2022/09/28 08:13:24;;;;;;;;;;;17.20;99.90;;;;;;4935320;29;19921;-73
2022/09/28 08:15:51;;;;;;;;;;;17.20;99.90;;;;;;4933310;29;19991;-70
2022/09/28 08:18:18;;;;;;;;;;;17.20;99.90;;;;;;4934952;29;19978;-72
2022/09/28 08:23:30;;;;;;;;;;;17.20;99.90;;;;;;4934067;29;20022;-73
2022/09/28 08:25:57;;;;;;;;;;;17.10;99.90;;;;;;4933103;29;19911;-69
2022/09/28 08:28:24;;;;;;;;;;;17.10;99.90;;;;;;4936333;29;20005;-71
2022/09/28 08:30:51;;;;;;;;;;;17.00;99.90;;;;;;4940693;29;20021;-70
2022/09/28 08:33:20;;;;;;;;;;;16.90;99.90;;;;;;4935339;29;20347;-70
2022/09/28 08:35:47;;;;;;;;;;;16.90;99.90;;;;;;4934760;29;20258;-71
2022/09/28 08:38:14;;;;;;;;;;;16.80;99.90;;;;;;4934030;29;19921;-72
2022/09/28 08:40:49;;;;;;;;;;;16.80;99.90;;;;;;4934487;29;19922;-72
2022/09/28 08:43:31;;;;;;;;;;;16.80;99.90;;;;;;4934480;29;20401;-73
2022/09/28 08:45:59;;;;;;;;;;;16.80;99.90;;;;;;4935289;29;19914;-72
2022/09/28 08:48:47;;;;;;;;;;;16.90;99.90;;;;;;4935069;29;19914;-77
2022/09/28 08:51:17;;;;;;;;;;;16.90;99.90;;;;;;4934613;29;20001;-72
2022/09/28 08:53:55;;;;;;;;;;;17.00;99.90;;;;;;4933612;29;19919;-71
2022/09/28 08:56:40;;;;;;;;;;;17.00;99.90;;;;;;4934894;29;19915;-73
2022/09/28 08:59:16;;;;;;;;;;;17.10;99.90;;;;;;4934712;29;19918;-70
2022/09/28 09:01:57;;;;;;;;;;;17.00;99.90;;;;;;4933318;29;19930;-69
2022/09/28 09:04:24;;;;;;;;;;;17.00;99.90;;;;;;4933464;29;19996;-73
2022/09/28 09:07:17;;;;;;;;;;;17.00;99.90;;;;;;4934501;29;19911;-71
2022/09/28 09:09:51;;;;;;;;;;;17.00;99.90;;;;;;4936826;29;19921;-75
2022/09/28 09:12:18;;;;;;;;;;;16.90;99.90;;;;;;4938859;29;20441;-71
2022/09/28 09:14:58;;;;;;;;;;;16.80;99.90;;;;;;4937473;29;19911;-70
2022/09/28 09:17:28;;;;;;;;;;;16.80;99.90;;;;;;4935445;29;19941;-74
2022/09/28 09:20:04;;;;;;;;;;;16.70;99.90;;;;;;4935783;29;20034;-72
2022/09/28 09:22:41;;;;;;;;;;;16.70;99.90;;;;;;4935386;29;19941;-72
2022/09/28 09:25:17;;;;;;;;;;;16.70;99.90;;;;;;4935950;29;19910;-75
2022/09/28 09:27:50;;;;;;;;;;;16.70;99.90;;;;;;4936463;29;20314;-72
2022/09/28 09:30:20;;;;;;;;;;;16.60;99.90;;;;;;4936221;29;20398;-70
2022/09/28 09:33:03;;;;;;;;;;;16.70;99.90;;;;;;4934963;29;20009;-69
2022/09/28 09:35:39;;;;;;;;;;;16.60;99.90;;;;;;4934921;29;20006;-68
2022/09/28 09:38:18;;;;;;;;;;;16.60;99.90;;;;;;4935729;29;19911;-69
2022/09/28 09:40:55;;;;;;;;;;;16.60;99.90;;;;;;4935759;29;19915;-69
2022/09/28 09:43:40;;;;;;;;;;;16.60;99.90;;;;;;4935386;29;19927;-68
2022/09/28 09:46:16;;;;;;;;;;;16.60;99.90;;;;;;4935743;29;19946;-71
2022/09/28 09:48:43;;;;;;;;;;;16.70;99.90;;;;;;4935679;29;20724;-71
2022/09/28 09:51:20;;;;;;;;;;;16.60;99.90;;;;;;4935021;29;19921;-71
2022/09/28 09:53:58;;;;;;;;;;;16.60;99.90;;;;;;4935472;29;19917;-70
2022/09/28 09:56:44;;;;;;;;;;;16.60;99.90;;;;;;4935782;29;20354;-69
2022/09/28 09:59:14;;;;;;;;;;;16.60;99.90;;;;;;4935604;29;20062;-72
2022/09/28 10:01:41;;;;;;;;;;;16.60;99.90;;;;;;4934019;29;19930;-74
2022/09/28 10:04:13;;;;;;;;;;;16.60;99.90;;;;;;4946104;29;19910;-68
2022/09/28 10:06:41;;;;;;;;;;;16.50;99.90;;;;;;4937644;29;19937;-74
2022/09/28 10:09:13;;;;;;;;;;;16.50;99.90;;;;;;4935433;29;19922;-73
2022/09/28 10:11:44;;;;;;;;;;;16.50;99.90;;;;;;4935077;29;19915;-72
2022/09/28 10:14:16;;;;;;;;;;;16.60;99.90;;;;;;4934828;29;19958;-72
2022/09/28 10:16:44;;;;;;;;;;;16.60;99.90;;;;;;4935442;29;19915;-70
2022/09/28 10:19:14;;;;;;;;;;;16.60;99.90;;;;;;4934992;29;19969;-76
2022/09/28 10:21:45;;;;;;;;;;;16.60;99.90;;;;;;4935060;29;19918;-73
2022/09/28 10:24:28;;;;;;;;;;;16.60;99.90;;;;;;4934941;29;20002;-71
2022/09/28 10:26:55;;;;;;;;;;;16.60;99.90;;;;;;4935319;29;19914;-70
2022/09/28 10:29:24;;;;;;;;;;;16.60;99.90;;;;;;4934698;29;20264;-73
2022/09/28 10:31:51;;;;;;;;;;;16.60;99.90;;;;;;4934936;29;20009;-71
2022/09/28 10:34:24;;;;;;;;;;;16.50;99.90;;;;;;4935301;29;19974;-76
2022/09/28 10:36:59;;;;;;;;;;;16.50;99.90;;;;;;4935152;29;19910;-74
2022/09/28 10:39:38;;;;;;;;;;;16.40;99.90;;;;;;4934891;29;19921;-70
2022/09/28 10:42:09;;;;;;;;;;;16.30;99.90;;;;;;4934952;29;20385;-73
2022/09/28 10:44:56;;;;;;;;;;;16.20;99.90;;;;;;4933435;29;19915;-74
2022/09/28 10:47:27;;;;;;;;;;;16.10;99.90;;;;;;4928011;29;20329;-74
2022/09/28 10:49:55;;;;;;;;;;;16.00;99.90;;;;;;4935023;29;19917;-68
2022/09/28 10:52:41;;;;;;;;;;;15.80;99.90;;;;;;4934582;29;19918;-74
2022/09/28 10:55:20;;;;;;;;;;;15.60;99.90;;;;;;4934718;29;19911;-73
2022/09/28 10:57:47;;;;;;;;;;;15.40;99.90;;;;;;4934999;29;19921;-71
2022/09/28 11:00:34;;;;;;;;;;;15.30;99.90;;;;;;4934522;29;19919;-74
2022/09/28 11:03:01;;;;;;;;;;;15.20;99.90;;;;;;4927671;29;19929;-68
2022/09/28 11:05:28;;;;;;;;;;;15.10;99.90;;;;;;4934750;29;20008;-68
2022/09/28 11:07:59;;;;;;;;;;;15.10;99.90;;;;;;4934869;29;19915;-68
2022/09/28 11:10:28;;;;;;;;;;;15.00;99.90;;;;;;4935092;29;19915;-69
2022/09/28 11:12:55;;;;;;;;;;;15.00;99.90;;;;;;4935468;29;19911;-67
2022/09/28 11:15:24;;;;;;;;;;;14.90;99.90;;;;;;4934922;29;19915;-72
2022/09/28 11:17:51;;;;;;;;;;;14.80;99.90;;;;;;4934803;29;19911;-69
2022/09/28 11:20:24;;;;;;;;;;;14.80;99.90;;;;;;4934743;29;20378;-71
2022/09/28 11:22:52;;;;;;;;;;;14.80;99.90;;;;;;4934377;29;19923;-73
2022/09/28 11:25:21;;;;;;;;;;;14.80;99.90;;;;;;4934800;29;19998;-72
2022/09/28 11:27:50;;;;;;;;;;;14.80;99.90;;;;;;4935025;29;19974;-68
2022/09/28 11:30:27;;;;;;;;;;;14.80;99.90;;;;;;4934340;29;19911;-71
2022/09/28 11:32:56;;;;;;;;;;;14.70;99.90;;;;;;4934305;29;19934;-71
2022/09/28 11:35:27;;;;;;;;;;;14.70;99.90;;;;;;4934468;29;20290;-71
2022/09/28 11:38:00;;;;;;;;;;;14.60;99.90;;;;;;4938314;29;20009;-68
2022/09/28 11:40:45;;;;;;;;;;;14.60;99.90;;;;;;4940313;29;20359;-69
2022/09/28 11:43:30;;;;;;;;;;;14.60;99.90;;;;;;4933877;29;20323;-71
2022/09/28 11:46:02;;;;;;;;;;;14.60;99.90;;;;;;4935184;29;19915;-73
2022/09/28 11:48:44;;;;;;;;;;;14.60;99.90;;;;;;4938074;29;19911;-70
2022/09/28 11:51:36;;;;;;;;;;;14.60;99.90;;;;;;4937875;29;20239;-68
2022/09/28 11:54:03;;;;;;;;;;;14.60;99.90;;;;;;4935864;29;19918;-70
2022/09/28 11:56:32;;;;;;;;;;;14.60;99.90;;;;;;4937745;29;19958;-68
2022/09/28 11:59:09;;;;;;;;;;;14.60;99.90;;;;;;4937253;29;19921;-67
2022/09/28 12:01:48;;;;;;;;;;;14.60;99.90;;;;;;4937342;29;19923;-70
2022/09/28 12:04:16;;;;;;;;;;;14.60;99.90;;;;;;4937517;29;20398;-67
2022/09/28 12:06:49;;;;;;;;;;;14.60;99.90;;;;;;4936844;29;20211;-69
2022/09/28 12:09:27;;;;;;;;;;;14.60;99.90;;;;;;4937203;29;19911;-68
2022/09/28 12:11:57;;;;;;;;;;;14.60;99.90;;;;;;4936927;29;20374;-67
2022/09/28 12:14:27;;;;;;;;;;;14.60;99.90;;;;;;4936828;29;19954;-68
2022/09/28 12:17:14;;;;;;;;;;;14.60;99.90;;;;;;4937342;29;20281;-67
2022/09/28 12:20:01;;;;;;;;;;;14.60;99.90;;;;;;4930342;29;19911;-68
2022/09/28 12:22:33;;;;;;;;;;;14.70;99.90;;;;;;4929875;29;19918;-68
2022/09/28 12:25:01;;;;;;;;;;;14.80;99.90;;;;;;4937239;29;19969;-70
2022/09/28 12:27:31;;;;;;;;;;;14.90;99.90;;;;;;4937153;29;20013;-70
2022/09/28 12:30:18;;;;;;;;;;;14.80;99.90;;;;;;4936756;29;19934;-68
2022/09/28 12:32:53;;;;;;;;;;;14.80;99.90;;;;;;4936716;29;20017;-69
2022/09/28 12:35:26;;;;;;;;;;;14.80;99.90;;;;;;4937026;29;20404;-71
2022/09/28 12:38:10;;;;;;;;;;;14.80;99.90;;;;;;4936870;29;19970;-68
2022/09/28 12:40:46;;;;;;;;;;;14.90;99.90;;;;;;4937002;29;20411;-68
2022/09/28 12:43:32;;;;;;;;;;;14.90;99.90;;;;;;4935747;29;20386;-69
2022/09/28 12:46:17;;;;;;;;;;;14.90;99.90;;;;;;4937021;29;19918;-67
2022/09/28 12:48:52;;;;;;;;;;;15.00;99.90;;;;;;4937021;29;19911;-72
2022/09/28 12:51:37;;;;;;;;;;;15.00;99.90;;;;;;4935644;29;19911;-70
2022/09/28 12:54:22;;;;;;;;;;;15.00;99.90;;;;;;4936193;29;19911;-69
2022/09/28 12:57:01;;;;;;;;;;;15.00;99.90;;;;;;4937156;29;20346;-73
2022/09/28 12:59:36;;;;;;;;;;;15.00;99.90;;;;;;4935739;29;20370;-75
2022/09/28 13:02:32;;;;;;;;;;;15.00;99.90;;;;;;4935974;29;19931;-69
2022/09/28 13:05:02;;;;;;;;;;;15.00;99.90;;;;;;4922795;29;19914;-74
2022/09/28 13:07:48;;;;;;;;;;;15.00;99.90;;;;;;4936530;29;19958;-69
2022/09/28 13:10:25;;;;;;;;;;;14.90;99.90;;;;;;4938991;29;20369;-74
2022/09/28 13:13:01;;;;;;;;;;;14.80;99.90;;;;;;4916901;29;19967;-74
2022/09/28 13:15:30;;;;;;;;;;;14.80;99.90;;;;;;4917720;29;19912;-73
2022/09/28 13:18:00;;;;;;;;;;;14.80;99.90;;;;;;4919196;29;19915;-70
2022/09/28 13:20:34;;;;;;;;;;;14.90;99.90;;;;;;4935930;29;20504;-71
2022/09/28 13:23:08;;;;;;;;;;;14.90;99.90;;;;;;4935718;29;19992;-69
2022/09/28 13:25:39;;;;;;;;;;;14.90;99.90;;;;;;4936293;29;20009;-70
2022/09/28 13:28:05;;;;;;;;;;;14.90;99.90;;;;;;4936037;29;19911;-74
2022/09/28 13:30:34;;;;;;;;;;;14.90;99.90;;;;;;4936195;29;19935;-69
2022/09/28 13:33:02;;;;;;;;;;;14.80;99.90;;;;;;4934862;29;19949;-70
2022/09/28 13:35:29;;;;;;;;;;;14.80;99.90;;;;;;4936132;29;19976;-73
2022/09/28 13:38:14;;;;;;;;;;;14.70;99.90;;;;;;4935798;29;20002;-73
2022/09/28 13:40:59;;;;;;;;;;;14.70;99.90;;;;;;4936036;29;19954;-75
2022/09/28 13:43:30;;;;;;;;;;;14.70;99.90;;;;;;4934925;29;19919;-73
2022/09/28 13:46:02;;;;;;;;;;;14.80;99.90;;;;;;4933987;29;19918;-71
2022/09/28 13:49:07;;;;;;;;;;;14.80;99.90;;;;;;4933888;29;19911;-72
2022/09/28 13:51:46;;;;;;;;;;;14.80;99.90;;;;;;4914156;29;19920;-73
2022/09/28 13:54:25;;;;;;;;;;;14.80;99.90;;;;;;4914621;29;20434;-75
2022/09/28 13:56:55;;;;;;;;;;;14.90;99.90;;;;;;4928352;29;20400;-73
2022/09/28 13:59:28;;;;;;;;;;;14.80;99.90;;;;;;4935549;29;19918;-73
2022/09/28 14:01:58;;;;;;;;;;;14.80;99.90;;;;;;4935061;29;19928;-72
2022/09/28 14:04:46;;;;;;;;;;;14.80;99.90;;;;;;4935593;29;20401;-72
2022/09/28 14:07:20;;;;;;;;;;;14.80;99.90;;;;;;4935350;29;19919;-73
2022/09/28 14:09:48;;;;;;;;;;;14.80;99.90;;;;;;4935387;29;19910;-73
2022/09/28 14:12:30;;;;;;;;;;;14.80;99.90;;;;;;4935060;29;20293;-74
2022/09/28 14:14:57;;;;;;;;;;;14.70;99.90;;;;;;4935700;29;19911;-72
2022/09/28 14:17:23;;;;;;;;;;;14.70;99.90;;;;;;4935392;29;19957;-70
2022/09/28 14:19:54;;;;;;;;;;;14.70;99.90;;;;;;4935609;29;19911;-72
2022/09/28 14:22:21;;;;;;;;;;;14.70;99.90;;;;;;4935081;29;19923;-72
2022/09/28 14:24:58;;;;;;;;;;;14.70;99.90;;;;;;4935829;29;19962;-70
2022/09/28 14:27:47;;;;;;;;;;;14.70;99.90;;;;;;4935739;29;19914;-72
2022/09/28 14:30:14;;;;;;;;;;;14.70;99.90;;;;;;4943224;29;19925;-71
2022/09/28 14:32:43;;;;;;;;;;;14.70;99.90;;;;;;4956766;29;19903;-73
2022/09/28 14:35:23;;;;;;;;;;;14.70;99.90;;;;;;4956277;29;19927;-69
2022/09/28 14:41:13;;;;;;;;;;;14.70;99.90;;;;;;4940710;29;19965;-72
2022/09/28 14:43:43;;;;;;;;;;;14.70;99.90;;;;;;4941553;29;19922;-68
2022/09/28 14:46:21;;;;;;;;;;;14.70;99.90;;;;;;4935930;29;19922;-69
2022/09/28 14:48:49;;;;;;;;;;;14.70;99.90;;;;;;4935820;29;20431;-69
2022/09/28 14:51:25;;;;;;;;;;;14.70;99.90;;;;;;4934883;29;19915;-68
2022/09/28 14:53:55;;;;;;;;;;;14.70;99.90;;;;;;4934880;29;19914;-68